N12RF KM01-KHSV
Flight info
| Callsign | N12RF |
|---|---|
| Flight time | 0h 49m |
| Altitude | 25000 |
| Route | HENSY BEATS |
| Aircraft | SF50/L-BDGRSWY/LB2U2 |
Departure
| Time | 2026-04-25 04:20 |
|---|---|
| Airport | General Dewitt Spain Airport (KM01) |
Arrival
| Time | 2026-04-25 05:10 |
|---|---|
| Airport | Huntsville International Airport (KHSV) |
| Time | Latitude | Longitude | Altitude | Speed | Heading |
|---|---|---|---|---|---|
| 2026-04-25 04:03 | 35.20102 | -90.05268 | 233 ft | 0 kts | 104° |
| 2026-04-25 04:18 | 35.20096 | -90.05261 | 230 ft | 6 kts | 125° |
| 2026-04-25 04:18 | 35.20124 | -90.05274 | 230 ft | 10 kts | 263° |
| 2026-04-25 04:18 | 35.20080 | -90.05331 | 228 ft | 13 kts | 165° |
| 2026-04-25 04:18 | 35.19976 | -90.05302 | 227 ft | 17 kts | 166° |
| 2026-04-25 04:19 | 35.19850 | -90.05264 | 226 ft | 19 kts | 166° |
| 2026-04-25 04:19 | 35.19728 | -90.05228 | 225 ft | 18 kts | 166° |
| 2026-04-25 04:19 | 35.19616 | -90.05195 | 226 ft | 15 kts | 166° |
| 2026-04-25 04:19 | 35.19596 | -90.05191 | 226 ft | 1 kts | 189° |
| 2026-04-25 04:20 | 35.19571 | -90.05250 | 226 ft | 8 kts | 320° |
| 2026-04-25 04:20 | 35.19791 | -90.05315 | 228 ft | 72 kts | 346° |
| 2026-04-25 04:20 | 35.20459 | -90.05508 | 487 ft | 115 kts | 349° |
| 2026-04-25 04:20 | 35.21306 | -90.05713 | 986 ft | 133 kts | 349° |
| 2026-04-25 04:21 | 35.22273 | -90.05878 | 1505 ft | 150 kts | 352° |
| 2026-04-25 04:21 | 35.23418 | -90.05843 | 1735 ft | 178 kts | 15° |
| 2026-04-25 04:21 | 35.24518 | -90.05010 | 1821 ft | 195 kts | 49° |
| 2026-04-25 04:21 | 35.25115 | -90.03644 | 1764 ft | 174 kts | 72° |
| 2026-04-25 04:22 | 35.25376 | -90.02248 | 1751 ft | 164 kts | 78° |
| 2026-04-25 04:22 | 35.25614 | -90.00868 | 1486 ft | 171 kts | 78° |
| 2026-04-25 04:22 | 35.25854 | -89.99477 | 1462 ft | 163 kts | 78° |
| 2026-04-25 04:22 | 35.26084 | -89.98146 | 1455 ft | 157 kts | 78° |
| 2026-04-25 04:23 | 35.26296 | -89.96856 | 1453 ft | 152 kts | 81° |
| 2026-04-25 04:23 | 35.26351 | -89.95584 | 1454 ft | 148 kts | 88° |
| 2026-04-25 04:23 | 35.26424 | -89.94340 | 1455 ft | 145 kts | 84° |
| 2026-04-25 04:23 | 35.26523 | -89.93116 | 1456 ft | 143 kts | 84° |
| 2026-04-25 04:24 | 35.26626 | -89.91906 | 1455 ft | 142 kts | 84° |
| 2026-04-25 04:24 | 35.26728 | -89.90707 | 1456 ft | 141 kts | 84° |
| 2026-04-25 04:24 | 35.26831 | -89.89514 | 1480 ft | 138 kts | 84° |
| 2026-04-25 04:24 | 35.26918 | -89.88465 | 2092 ft | 120 kts | 84° |
| 2026-04-25 04:25 | 35.27004 | -89.87463 | 2797 ft | 118 kts | 85° |
| 2026-04-25 04:25 | 35.27084 | -89.86484 | 3491 ft | 112 kts | 87° |
| 2026-04-25 04:25 | 35.27163 | -89.85570 | 4119 ft | 107 kts | 89° |
| 2026-04-25 04:25 | 35.27243 | -89.84550 | 4479 ft | 132 kts | 88° |
| 2026-04-25 04:26 | 35.27351 | -89.83393 | 5044 ft | 139 kts | 88° |
| 2026-04-25 04:26 | 35.27452 | -89.82175 | 5844 ft | 147 kts | 88° |
| 2026-04-25 04:26 | 35.27566 | -89.80917 | 6689 ft | 150 kts | 88° |
| 2026-04-25 04:26 | 35.27633 | -89.79644 | 7515 ft | 149 kts | 102° |
| 2026-04-25 04:27 | 35.27320 | -89.78464 | 8363 ft | 145 kts | 115° |
| 2026-04-25 04:27 | 35.27045 | -89.77267 | 9220 ft | 146 kts | 108° |
| 2026-04-25 04:27 | 35.26799 | -89.76060 | 10050 ft | 146 kts | 109° |
| 2026-04-25 04:27 | 35.26560 | -89.74866 | 10771 ft | 150 kts | 108° |
| 2026-04-25 04:28 | 35.26295 | -89.73547 | 11148 ft | 170 kts | 107° |
| 2026-04-25 04:28 | 35.25997 | -89.72036 | 11379 ft | 195 kts | 106° |
| 2026-04-25 04:28 | 35.25665 | -89.70348 | 11736 ft | 207 kts | 106° |
| 2026-04-25 04:28 | 35.25329 | -89.68631 | 12296 ft | 208 kts | 106° |
| 2026-04-25 04:29 | 35.24985 | -89.66895 | 12825 ft | 210 kts | 106° |
| 2026-04-25 04:29 | 35.24639 | -89.65148 | 13342 ft | 213 kts | 105° |
| 2026-04-25 04:29 | 35.24290 | -89.63395 | 13819 ft | 216 kts | 105° |
| 2026-04-25 04:29 | 35.23931 | -89.61594 | 14265 ft | 219 kts | 105° |
| 2026-04-25 04:30 | 35.23568 | -89.59774 | 14708 ft | 222 kts | 105° |
| 2026-04-25 04:30 | 35.23201 | -89.57928 | 15147 ft | 225 kts | 105° |
| 2026-04-25 04:30 | 35.22827 | -89.56059 | 15577 ft | 228 kts | 105° |
| 2026-04-25 04:30 | 35.22451 | -89.54159 | 16005 ft | 231 kts | 105° |
| 2026-04-25 04:31 | 35.22069 | -89.52244 | 16428 ft | 233 kts | 105° |
| 2026-04-25 04:31 | 35.21681 | -89.50303 | 16847 ft | 236 kts | 105° |
| 2026-04-25 04:31 | 35.21290 | -89.48339 | 17262 ft | 239 kts | 105° |
| 2026-04-25 04:31 | 35.20891 | -89.46352 | 17666 ft | 242 kts | 105° |
| 2026-04-25 04:32 | 35.20490 | -89.44342 | 18074 ft | 244 kts | 105° |
| 2026-04-25 04:32 | 35.20082 | -89.42316 | 18433 ft | 246 kts | 105° |
| 2026-04-25 04:32 | 35.19674 | -89.40278 | 18813 ft | 247 kts | 105° |
| 2026-04-25 04:32 | 35.19264 | -89.38245 | 19211 ft | 246 kts | 105° |
| 2026-04-25 04:33 | 35.18861 | -89.36240 | 19596 ft | 245 kts | 105° |
| 2026-04-25 04:33 | 35.18452 | -89.34212 | 19993 ft | 245 kts | 105° |
| 2026-04-25 04:33 | 35.18045 | -89.32190 | 20393 ft | 244 kts | 106° |
| 2026-04-25 04:33 | 35.17640 | -89.30173 | 20793 ft | 244 kts | 106° |
| 2026-04-25 04:34 | 35.17233 | -89.28159 | 21205 ft | 243 kts | 106° |
| 2026-04-25 04:34 | 35.16826 | -89.26151 | 21615 ft | 243 kts | 106° |
| 2026-04-25 04:34 | 35.16423 | -89.24146 | 22026 ft | 243 kts | 106° |
| 2026-04-25 04:34 | 35.16024 | -89.22161 | 22512 ft | 238 kts | 106° |
| 2026-04-25 04:35 | 35.15625 | -89.20204 | 22934 ft | 237 kts | 107° |
| 2026-04-25 04:35 | 35.15227 | -89.18245 | 23337 ft | 237 kts | 107° |
| 2026-04-25 04:35 | 35.14964 | -89.16949 | 23581 ft | 237 kts | 107° |
| 2026-04-25 04:35 | 35.14568 | -89.15000 | 23918 ft | 236 kts | 107° |
| 2026-04-25 04:36 | 35.14044 | -89.12417 | 24363 ft | 236 kts | 107° |
| 2026-04-25 04:36 | 35.13647 | -89.10474 | 24703 ft | 235 kts | 107° |
| 2026-04-25 04:36 | 35.13384 | -89.09181 | 24856 ft | 240 kts | 107° |
| 2026-04-25 04:36 | 35.12975 | -89.07184 | 24867 ft | 241 kts | 107° |
| 2026-04-25 04:37 | 35.12574 | -89.05208 | 24863 ft | 242 kts | 107° |
| 2026-04-25 04:37 | 35.11999 | -89.02408 | 24874 ft | 263 kts | 107° |
| 2026-04-25 04:37 | 35.11704 | -89.00955 | 24876 ft | 269 kts | 107° |
| 2026-04-25 04:37 | 35.11246 | -88.98700 | 24873 ft | 277 kts | 107° |
| 2026-04-25 04:38 | 35.10772 | -88.96385 | 24874 ft | 284 kts | 107° |
| 2026-04-25 04:38 | 35.10289 | -88.94023 | 24877 ft | 289 kts | 107° |
| 2026-04-25 04:38 | 35.09794 | -88.91614 | 24876 ft | 294 kts | 107° |
| 2026-04-25 04:38 | 35.09294 | -88.89169 | 24878 ft | 299 kts | 107° |
| 2026-04-25 04:39 | 35.08783 | -88.86688 | 24882 ft | 304 kts | 107° |
| 2026-04-25 04:39 | 35.08262 | -88.84161 | 24885 ft | 309 kts | 107° |
| 2026-04-25 04:39 | 35.07735 | -88.81601 | 24887 ft | 312 kts | 107° |
| 2026-04-25 04:39 | 35.07201 | -88.79018 | 24889 ft | 315 kts | 107° |
| 2026-04-25 04:40 | 35.06670 | -88.76444 | 24892 ft | 317 kts | 107° |
| 2026-04-25 04:40 | 35.06140 | -88.73880 | 24896 ft | 319 kts | 107° |
| 2026-04-25 04:40 | 35.05595 | -88.71249 | 24896 ft | 320 kts | 107° |
| 2026-04-25 04:40 | 35.05049 | -88.68612 | 24898 ft | 321 kts | 107° |
| 2026-04-25 04:41 | 35.04499 | -88.65961 | 24901 ft | 322 kts | 107° |
| 2026-04-25 04:41 | 35.03948 | -88.63301 | 24900 ft | 323 kts | 107° |
| 2026-04-25 04:41 | 35.03394 | -88.60641 | 24903 ft | 323 kts | 107° |
| 2026-04-25 04:41 | 35.02841 | -88.57980 | 24903 ft | 324 kts | 107° |
| 2026-04-25 04:42 | 35.02285 | -88.55314 | 24902 ft | 324 kts | 107° |
| 2026-04-25 04:42 | 35.01742 | -88.52711 | 24901 ft | 324 kts | 107° |
| 2026-04-25 04:42 | 35.01184 | -88.50042 | 24900 ft | 324 kts | 107° |
| 2026-04-25 04:42 | 35.00624 | -88.47374 | 24898 ft | 325 kts | 107° |
| 2026-04-25 04:43 | 35.00064 | -88.44701 | 24893 ft | 325 kts | 107° |
| 2026-04-25 04:43 | 34.99505 | -88.42031 | 24891 ft | 325 kts | 107° |
| 2026-04-25 04:43 | 34.98951 | -88.39397 | 24887 ft | 325 kts | 107° |
| 2026-04-25 04:43 | 34.98389 | -88.36730 | 24885 ft | 325 kts | 107° |
| 2026-04-25 04:44 | 34.97828 | -88.34057 | 24875 ft | 325 kts | 107° |
| 2026-04-25 04:44 | 34.97265 | -88.31386 | 24872 ft | 325 kts | 107° |
| 2026-04-25 04:44 | 34.96703 | -88.28720 | 24869 ft | 325 kts | 107° |
| 2026-04-25 04:44 | 34.96148 | -88.26078 | 24536 ft | 310 kts | 107° |
| 2026-04-25 04:45 | 34.95631 | -88.23625 | 24132 ft | 285 kts | 107° |
| 2026-04-25 04:45 | 34.95159 | -88.21396 | 23871 ft | 258 kts | 107° |
| 2026-04-25 04:45 | 34.94731 | -88.19380 | 23786 ft | 233 kts | 107° |
| 2026-04-25 04:45 | 34.94350 | -88.17588 | 23765 ft | 211 kts | 108° |
| 2026-04-25 04:46 | 34.93957 | -88.15942 | 23694 ft | 195 kts | 116° |
| 2026-04-25 04:46 | 34.93370 | -88.14468 | 23447 ft | 194 kts | 120° |
| 2026-04-25 04:46 | 34.92852 | -88.12945 | 23149 ft | 196 kts | 109° |
| 2026-04-25 04:46 | 34.92720 | -88.11288 | 22845 ft | 198 kts | 93° |
| 2026-04-25 04:47 | 34.92661 | -88.09615 | 22550 ft | 197 kts | 95° |
| 2026-04-25 04:47 | 34.92577 | -88.07950 | 22260 ft | 196 kts | 95° |
| 2026-04-25 04:47 | 34.92499 | -88.06291 | 21963 ft | 196 kts | 95° |
| 2026-04-25 04:47 | 34.92423 | -88.04637 | 21670 ft | 195 kts | 95° |
| 2026-04-25 04:48 | 34.92343 | -88.02985 | 21382 ft | 195 kts | 95° |
| 2026-04-25 04:48 | 34.92267 | -88.01337 | 21090 ft | 194 kts | 95° |
| 2026-04-25 04:48 | 34.92188 | -87.99695 | 20728 ft | 196 kts | 95° |
| 2026-04-25 04:48 | 34.92105 | -87.97942 | 20012 ft | 215 kts | 94° |
| 2026-04-25 04:49 | 34.92018 | -87.96098 | 19330 ft | 225 kts | 94° |
| 2026-04-25 04:49 | 34.91928 | -87.94168 | 18648 ft | 230 kts | 94° |
| 2026-04-25 04:49 | 34.91833 | -87.92212 | 17943 ft | 232 kts | 94° |
| 2026-04-25 04:49 | 34.91741 | -87.90245 | 17169 ft | 232 kts | 94° |
| 2026-04-25 04:50 | 34.91645 | -87.88279 | 16415 ft | 233 kts | 94° |
| 2026-04-25 04:50 | 34.91551 | -87.86327 | 15867 ft | 226 kts | 94° |
| 2026-04-25 04:50 | 34.91460 | -87.84440 | 15376 ft | 220 kts | 94° |
| 2026-04-25 04:50 | 34.91370 | -87.82596 | 14894 ft | 216 kts | 94° |
| 2026-04-25 04:51 | 34.91281 | -87.80771 | 14420 ft | 214 kts | 94° |
| 2026-04-25 04:51 | 34.91193 | -87.78969 | 13956 ft | 213 kts | 94° |
| 2026-04-25 04:51 | 34.91107 | -87.77194 | 13475 ft | 214 kts | 94° |
| 2026-04-25 04:51 | 34.91012 | -87.75329 | 13002 ft | 228 kts | 94° |
| 2026-04-25 04:52 | 34.90914 | -87.73328 | 12984 ft | 250 kts | 94° |
| 2026-04-25 04:52 | 34.90804 | -87.71127 | 12985 ft | 267 kts | 94° |
| 2026-04-25 04:52 | 34.90690 | -87.68818 | 12986 ft | 277 kts | 94° |
| 2026-04-25 04:52 | 34.90574 | -87.66452 | 12989 ft | 282 kts | 94° |
| 2026-04-25 04:53 | 34.90451 | -87.64047 | 12989 ft | 286 kts | 94° |
| 2026-04-25 04:53 | 34.90330 | -87.61618 | 12989 ft | 288 kts | 94° |
| 2026-04-25 04:53 | 34.90208 | -87.59174 | 12990 ft | 290 kts | 94° |
| 2026-04-25 04:53 | 34.90084 | -87.56722 | 12987 ft | 291 kts | 94° |
| 2026-04-25 04:54 | 34.89960 | -87.54289 | 12988 ft | 292 kts | 94° |
| 2026-04-25 04:54 | 34.89832 | -87.51808 | 12987 ft | 293 kts | 94° |
| 2026-04-25 04:54 | 34.89705 | -87.49326 | 12987 ft | 294 kts | 94° |
| 2026-04-25 04:54 | 34.89577 | -87.46839 | 12985 ft | 294 kts | 94° |
| 2026-04-25 04:55 | 34.89446 | -87.44346 | 12983 ft | 294 kts | 94° |
| 2026-04-25 04:55 | 34.89318 | -87.41855 | 12983 ft | 295 kts | 94° |
| 2026-04-25 04:55 | 34.89189 | -87.39362 | 12982 ft | 295 kts | 94° |
| 2026-04-25 04:55 | 34.89058 | -87.36895 | 12979 ft | 281 kts | 94° |
| 2026-04-25 04:56 | 34.88940 | -87.34650 | 12968 ft | 260 kts | 94° |
| 2026-04-25 04:56 | 34.88827 | -87.32491 | 12956 ft | 252 kts | 93° |
| 2026-04-25 04:56 | 34.88714 | -87.30366 | 12955 ft | 251 kts | 94° |
| 2026-04-25 04:56 | 34.88602 | -87.28245 | 12955 ft | 251 kts | 94° |
| 2026-04-25 04:57 | 34.88487 | -87.26088 | 12946 ft | 260 kts | 94° |
| 2026-04-25 04:57 | 34.88372 | -87.23932 | 12958 ft | 254 kts | 94° |
| 2026-04-25 04:57 | 34.88256 | -87.21752 | 12534 ft | 257 kts | 94° |
| 2026-04-25 04:57 | 34.88142 | -87.19634 | 12034 ft | 244 kts | 94° |
| 2026-04-25 04:58 | 34.88033 | -87.17608 | 11542 ft | 236 kts | 94° |
| 2026-04-25 04:58 | 34.87925 | -87.15633 | 11041 ft | 231 kts | 95° |
| 2026-04-25 04:58 | 34.87818 | -87.13657 | 10328 ft | 233 kts | 95° |
| 2026-04-25 04:58 | 34.87712 | -87.11702 | 9617 ft | 229 kts | 95° |
| 2026-04-25 04:59 | 34.87607 | -87.09779 | 8857 ft | 226 kts | 95° |
| 2026-04-25 04:59 | 34.87501 | -87.07883 | 8113 ft | 223 kts | 95° |
| 2026-04-25 04:59 | 34.87401 | -87.06035 | 7394 ft | 220 kts | 95° |
| 2026-04-25 04:59 | 34.87298 | -87.04187 | 6681 ft | 217 kts | 95° |
| 2026-04-25 05:00 | 34.87198 | -87.02357 | 5955 ft | 214 kts | 95° |
| 2026-04-25 05:00 | 34.87099 | -87.00559 | 5219 ft | 212 kts | 96° |
| 2026-04-25 05:00 | 34.87001 | -86.98782 | 4490 ft | 208 kts | 96° |
| 2026-04-25 05:00 | 34.86902 | -86.97030 | 3750 ft | 206 kts | 96° |
| 2026-04-25 05:01 | 34.86807 | -86.95315 | 3289 ft | 194 kts | 96° |
| 2026-04-25 05:01 | 34.86720 | -86.93743 | 3283 ft | 184 kts | 96° |
| 2026-04-25 05:01 | 34.86632 | -86.92228 | 3287 ft | 172 kts | 95° |
| 2026-04-25 05:01 | 34.86551 | -86.90792 | 3280 ft | 168 kts | 96° |
| 2026-04-25 05:02 | 34.86470 | -86.89380 | 3277 ft | 166 kts | 96° |
| 2026-04-25 05:02 | 34.86391 | -86.87978 | 3272 ft | 166 kts | 96° |
| 2026-04-25 05:02 | 34.86311 | -86.86550 | 3072 ft | 169 kts | 96° |
| 2026-04-25 05:02 | 34.86233 | -86.85168 | 2982 ft | 162 kts | 96° |
| 2026-04-25 05:03 | 34.86154 | -86.83781 | 2976 ft | 164 kts | 96° |
| 2026-04-25 05:03 | 34.86075 | -86.82392 | 2975 ft | 164 kts | 96° |
| 2026-04-25 05:03 | 34.85995 | -86.81004 | 2990 ft | 165 kts | 96° |
| 2026-04-25 05:03 | 34.85781 | -86.79644 | 2984 ft | 164 kts | 117° |
| 2026-04-25 05:04 | 34.85112 | -86.78578 | 2978 ft | 153 kts | 142° |
| 2026-04-25 05:04 | 34.84202 | -86.77971 | 2967 ft | 148 kts | 165° |
| 2026-04-25 05:04 | 34.83199 | -86.77845 | 2969 ft | 144 kts | 185° |
| 2026-04-25 05:04 | 34.82197 | -86.77883 | 2972 ft | 144 kts | 183° |
| 2026-04-25 05:05 | 34.81192 | -86.77893 | 2980 ft | 145 kts | 184° |
| 2026-04-25 05:05 | 34.80197 | -86.77913 | 2979 ft | 145 kts | 184° |
| 2026-04-25 05:05 | 34.79187 | -86.77932 | 2980 ft | 145 kts | 184° |
| 2026-04-25 05:05 | 34.78177 | -86.77953 | 2980 ft | 145 kts | 184° |
| 2026-04-25 05:06 | 34.77161 | -86.77973 | 2904 ft | 147 kts | 184° |
| 2026-04-25 05:06 | 34.76169 | -86.77992 | 2732 ft | 135 kts | 183° |
| 2026-04-25 05:06 | 34.75217 | -86.78010 | 2554 ft | 138 kts | 184° |
| 2026-04-25 05:06 | 34.74258 | -86.78030 | 2375 ft | 138 kts | 183° |
| 2026-04-25 05:07 | 34.73299 | -86.78051 | 2192 ft | 138 kts | 183° |
| 2026-04-25 05:07 | 34.72486 | -86.78067 | 2062 ft | 136 kts | 183° |
| 2026-04-25 05:07 | 34.71649 | -86.78080 | 1919 ft | 111 kts | 183° |
| 2026-04-25 05:07 | 34.70851 | -86.78086 | 1753 ft | 115 kts | 182° |
| 2026-04-25 05:08 | 34.70048 | -86.78098 | 1593 ft | 116 kts | 182° |
| 2026-04-25 05:08 | 34.69249 | -86.78117 | 1457 ft | 114 kts | 182° |
| 2026-04-25 05:08 | 34.68464 | -86.78147 | 1320 ft | 111 kts | 182° |
| 2026-04-25 05:08 | 34.67705 | -86.78162 | 1164 ft | 107 kts | 180° |
| 2026-04-25 05:09 | 34.66981 | -86.78174 | 1025 ft | 105 kts | 180° |
| 2026-04-25 05:09 | 34.66252 | -86.78190 | 855 ft | 106 kts | 181° |
| 2026-04-25 05:09 | 34.65517 | -86.78207 | 722 ft | 103 kts | 180° |
| 2026-04-25 05:09 | 34.64835 | -86.78219 | 633 ft | 89 kts | 180° |
| 2026-04-25 05:10 | 34.64318 | -86.78226 | 623 ft | 58 kts | 181° |
| 2026-04-25 05:10 | 34.63971 | -86.78234 | 628 ft | 43 kts | 180° |
| 2026-04-25 05:10 | 34.63707 | -86.78243 | 629 ft | 35 kts | 180° |
| 2026-04-25 05:10 | 34.63489 | -86.78234 | 634 ft | 20 kts | 150° |
| 2026-04-25 05:11 | 34.63465 | -86.78123 | 632 ft | 0 kts | 92° |
| 2026-04-25 05:12 | 34.63465 | -86.78122 | 632 ft | 1 kts | 92° |
| 2026-04-25 05:12 | 34.63464 | -86.78082 | 631 ft | 11 kts | 88° |
| 2026-04-25 05:12 | 34.63530 | -86.77996 | 630 ft | 21 kts | 2° |
| 2026-04-25 05:13 | 34.63701 | -86.77992 | 629 ft | 27 kts | 1° |
| 2026-04-25 05:13 | 34.63908 | -86.77989 | 633 ft | 31 kts | 359° |
| 2026-04-25 05:13 | 34.64126 | -86.77986 | 632 ft | 31 kts | 3° |
| 2026-04-25 05:13 | 34.64176 | -86.77893 | 631 ft | 11 kts | 83° |
| 2026-04-25 05:14 | 34.64174 | -86.77780 | 630 ft | 17 kts | 89° |
| 2026-04-25 05:14 | 34.64170 | -86.77611 | 634 ft | 24 kts | 90° |
| 2026-04-25 05:14 | 34.64169 | -86.77391 | 626 ft | 27 kts | 91° |
| 2026-04-25 05:15 | 34.64163 | -86.76959 | 623 ft | 24 kts | 91° |
| 2026-04-25 05:15 | 34.64161 | -86.76774 | 626 ft | 20 kts | 84° |
| 2026-04-25 05:15 | 34.64266 | -86.76718 | 629 ft | 17 kts | 1° |
| 2026-04-25 05:15 | 34.64382 | -86.76716 | 629 ft | 16 kts | 359° |
| 2026-04-25 05:16 | 34.64485 | -86.76714 | 632 ft | 14 kts | 359° |
| 2026-04-25 05:16 | 34.64584 | -86.76712 | 637 ft | 16 kts | 0° |
| 2026-04-25 05:16 | 34.64719 | -86.76709 | 639 ft | 21 kts | 1° |
| 2026-04-25 05:16 | 34.64831 | -86.76768 | 637 ft | 19 kts | 274° |
| 2026-04-25 05:17 | 34.64872 | -86.76886 | 635 ft | 15 kts | 20° |
| 2026-04-25 05:17 | 34.64957 | -86.76878 | 635 ft | 10 kts | 359° |
| 2026-04-25 05:17 | 34.65018 | -86.76892 | 635 ft | 12 kts | 307° |
| 2026-04-25 05:17 | 34.64997 | -86.76972 | 631 ft | 2 kts | 123° |
| 2026-04-25 05:18 | 34.64995 | -86.76963 | 631 ft | 6 kts | 100° |
| 2026-04-25 05:18 | 34.64995 | -86.76936 | 633 ft | 4 kts | 84° |
| 2026-04-25 05:18 | 34.64995 | -86.76935 | 633 ft | 0 kts | 84° |